createdAt,value
2022-08-19T00:01:06.217Z,22.50
2022-08-19T00:03:51.925Z,22.70
2022-08-19T00:06:39.985Z,22.80
2022-08-19T00:09:27.571Z,22.80
2022-08-19T00:12:13.093Z,22.70
2022-08-19T00:14:58.848Z,22.80
2022-08-19T00:17:45.859Z,22.90
2022-08-19T00:20:32.629Z,22.80
2022-08-19T00:23:18.349Z,22.90
2022-08-19T00:26:29.929Z,22.90
2022-08-19T00:29:18.425Z,23.00
2022-08-19T00:32:06.396Z,22.90
2022-08-19T00:34:56.801Z,22.90
2022-08-19T00:37:44.230Z,23.00
2022-08-19T00:40:31.662Z,22.90
2022-08-19T00:43:21.745Z,22.70
2022-08-19T00:46:08.874Z,22.60
2022-08-19T00:48:57.434Z,22.50
2022-08-19T00:51:46.289Z,22.70
2022-08-19T00:54:32.580Z,22.70
2022-08-19T00:57:23.539Z,22.60
2022-08-19T01:00:16.124Z,22.60
2022-08-19T01:03:02.772Z,22.50
2022-08-19T01:05:50.795Z,22.50
2022-08-19T01:08:36.521Z,22.60
2022-08-19T01:11:22.678Z,22.50
2022-08-19T01:14:10.603Z,22.40
2022-08-19T01:16:58.077Z,22.40
2022-08-19T01:19:46.133Z,22.40
2022-08-19T01:22:59.268Z,22.50
2022-08-19T01:25:50.882Z,22.50
2022-08-19T01:28:39.870Z,22.50
2022-08-19T01:31:32.736Z,22.50
2022-08-19T01:34:19.443Z,22.50
2022-08-19T01:37:12.675Z,22.40
2022-08-19T01:39:58.633Z,22.40
2022-08-19T01:42:45.369Z,22.40
2022-08-19T01:45:34.874Z,22.30
2022-08-19T01:48:21.133Z,22.30
2022-08-19T01:51:08.118Z,22.20
2022-08-19T01:53:54.589Z,22.30
2022-08-19T01:56:40.466Z,22.40
2022-08-19T01:59:26.893Z,22.40
2022-08-19T02:02:12.607Z,22.30
2022-08-19T02:04:59.562Z,22.30
2022-08-19T02:07:46.113Z,22.30
2022-08-19T02:10:33.187Z,22.40
2022-08-19T02:13:22.773Z,22.50
2022-08-19T02:16:12.553Z,22.60
2022-08-19T02:19:01.382Z,22.60
2022-08-19T02:21:47.519Z,22.40
2022-08-19T02:24:33.694Z,22.30
2022-08-19T02:27:20.704Z,22.30
2022-08-19T02:30:08.703Z,22.20
2022-08-19T02:33:00.490Z,22.20
2022-08-19T02:35:47.800Z,22.10
2022-08-19T02:38:34.465Z,22.10
2022-08-19T02:41:27.345Z,22.20
2022-08-19T02:44:27.607Z,22.20
2022-08-19T02:47:17.111Z,22.10
2022-08-19T02:50:03.738Z,22.30
2022-08-19T02:52:49.761Z,22.30
2022-08-19T02:55:46.161Z,22.30
2022-08-19T02:58:32.430Z,22.20
2022-08-19T03:01:33.511Z,22.20
2022-08-19T03:04:20.413Z,22.10
2022-08-19T03:07:10.551Z,22.20
2022-08-19T03:09:57.292Z,22.10
2022-08-19T03:12:42.960Z,22.00
2022-08-19T03:15:29.193Z,22.00
2022-08-19T03:18:16.025Z,22.10
2022-08-19T03:21:04.468Z,22.20
2022-08-19T03:23:50.911Z,22.20
2022-08-19T03:26:41.977Z,22.10
2022-08-19T03:29:30.547Z,22.10
2022-08-19T03:32:32.577Z,22.20
2022-08-19T03:35:21.169Z,22.10
2022-08-19T03:38:08.484Z,22.00
2022-08-19T03:40:54.329Z,22.00
2022-08-19T03:43:41.987Z,22.10
2022-08-19T03:46:31.206Z,22.20
2022-08-19T03:49:18.707Z,22.20
2022-08-19T03:52:08.241Z,22.10
2022-08-19T03:54:53.916Z,22.00
2022-08-19T03:57:39.870Z,22.00
2022-08-19T04:00:25.820Z,21.90
2022-08-19T04:03:12.073Z,21.90
2022-08-19T04:05:57.719Z,22.00
2022-08-19T04:08:46.718Z,22.00
2022-08-19T04:11:43.563Z,21.90
2022-08-19T04:14:31.992Z,21.90
2022-08-19T04:17:17.797Z,21.90
2022-08-19T04:20:07.016Z,22.00
2022-08-19T04:22:53.243Z,21.90
2022-08-19T04:25:42.717Z,22.10
2022-08-19T04:28:28.587Z,22.10
2022-08-19T04:31:29.397Z,22.20
2022-08-19T04:34:18.186Z,22.20
2022-08-19T04:37:16.388Z,22.10
2022-08-19T04:40:20.632Z,22.00
2022-08-19T04:43:06.895Z,22.00
2022-08-19T04:45:56.441Z,22.00
2022-08-19T04:48:49.540Z,21.90
2022-08-19T04:51:36.426Z,21.90
2022-08-19T04:54:37.934Z,21.90
2022-08-19T04:57:25.712Z,21.80
2022-08-19T05:00:11.918Z,21.80
2022-08-19T05:02:57.736Z,21.60
2022-08-19T05:05:46.157Z,21.60
2022-08-19T05:08:32.555Z,21.70
2022-08-19T05:11:26.396Z,21.90
2022-08-19T05:14:13.849Z,22.00
2022-08-19T05:17:25.701Z,22.00
2022-08-19T05:20:26.869Z,22.10
2022-08-19T05:23:21.859Z,22.10
2022-08-19T05:26:10.330Z,22.10
2022-08-19T05:28:56.678Z,22.10
2022-08-19T05:31:43.438Z,21.90
2022-08-19T05:34:29.829Z,21.60
2022-08-19T05:37:16.032Z,21.70
2022-08-19T05:40:02.495Z,21.80
2022-08-19T05:42:55.029Z,22.00
2022-08-19T05:45:43.246Z,22.00
2022-08-19T05:48:28.864Z,22.00
2022-08-19T05:51:14.794Z,22.00
2022-08-19T05:54:05.326Z,22.00
2022-08-19T05:56:52.782Z,22.00
2022-08-19T05:59:39.257Z,22.10
2022-08-19T06:02:29.799Z,22.00
2022-08-19T06:05:15.915Z,22.10
2022-08-19T06:08:01.749Z,22.10
2022-08-19T06:10:47.336Z,22.10
2022-08-19T06:13:35.176Z,22.10
2022-08-19T06:16:23.697Z,22.10
2022-08-19T06:19:17.316Z,22.10
2022-08-19T06:22:02.764Z,22.00
2022-08-19T06:24:53.607Z,22.00
2022-08-19T06:27:58.516Z,21.90
2022-08-19T06:30:46.476Z,21.90
2022-08-19T06:33:32.403Z,21.90
2022-08-19T06:36:27.988Z,21.90
2022-08-19T06:39:20.564Z,21.90
2022-08-19T06:42:09.722Z,22.10
2022-08-19T06:44:57.140Z,22.20
2022-08-19T06:47:47.037Z,22.40
2022-08-19T06:50:34.520Z,22.40
2022-08-19T06:53:23.640Z,22.30
2022-08-19T06:56:09.429Z,22.30
2022-08-19T06:58:54.980Z,22.40
2022-08-19T07:01:46.719Z,22.40
2022-08-19T07:04:34.681Z,22.60
2022-08-19T07:07:21.919Z,22.80
2022-08-19T07:10:08.533Z,22.80
2022-08-19T07:12:55.149Z,23.00
2022-08-19T07:15:41.968Z,23.10
2022-08-19T07:18:28.759Z,23.20
2022-08-19T07:21:29.659Z,23.50
2022-08-19T07:24:17.681Z,23.80
2022-08-19T07:27:06.368Z,24.00
2022-08-19T07:29:57.597Z,24.00
2022-08-19T07:32:45.562Z,23.80
2022-08-19T07:35:32.986Z,23.40
2022-08-19T07:38:19.192Z,22.80
2022-08-19T07:41:05.092Z,22.60
2022-08-19T07:43:51.485Z,22.70
2022-08-19T07:46:40.775Z,22.60
2022-08-19T07:49:27.773Z,22.40
2022-08-19T07:52:14.852Z,22.40
2022-08-19T07:55:04.482Z,22.70
2022-08-19T07:57:50.512Z,22.70
2022-08-19T08:00:36.838Z,22.80
2022-08-19T08:03:47.159Z,22.80
2022-08-19T08:06:51.247Z,22.80
2022-08-19T08:09:42.699Z,22.70
2022-08-19T08:12:35.260Z,22.70
2022-08-19T08:15:22.305Z,22.80
2022-08-19T08:18:12.558Z,22.70
2022-08-19T08:20:58.876Z,22.60
2022-08-19T08:23:44.794Z,22.50
2022-08-19T08:26:31.681Z,22.50
2022-08-19T08:29:20.704Z,22.50
2022-08-19T08:32:14.898Z,22.50
2022-08-19T08:35:01.126Z,22.40
2022-08-19T08:37:50.692Z,22.50
2022-08-19T08:40:43.404Z,22.50
2022-08-19T08:43:40.031Z,22.50
2022-08-19T08:46:41.177Z,22.50
2022-08-19T08:50:01.635Z,22.40
2022-08-19T08:52:52.894Z,22.50
2022-08-19T08:55:41.778Z,22.70
2022-08-19T08:58:43.311Z,22.90
2022-08-19T09:01:30.796Z,23.10
2022-08-19T09:04:17.409Z,23.20
2022-08-19T09:07:58.330Z,23.30
2022-08-19T09:10:55.292Z,23.00
2022-08-19T09:14:01.888Z,23.40
2022-08-19T09:16:49.397Z,23.60
2022-08-19T09:19:55.944Z,23.50
2022-08-19T09:22:46.229Z,23.30
2022-08-19T09:25:35.332Z,23.20
2022-08-19T09:28:22.071Z,23.30
2022-08-19T09:31:08.908Z,23.40
2022-08-19T09:33:58.632Z,23.50
2022-08-19T09:36:44.770Z,23.50
2022-08-19T09:39:35.899Z,23.50
2022-08-19T09:42:30.490Z,23.40
2022-08-19T09:45:22.987Z,23.40
2022-08-19T09:48:09.421Z,23.30
2022-08-19T09:50:56.392Z,23.30
2022-08-19T09:53:42.883Z,23.60
2022-08-19T09:56:31.258Z,23.90
2022-08-19T09:59:17.699Z,23.80
2022-08-19T10:02:10.917Z,24.00
2022-08-19T10:05:16.346Z,24.10
2022-08-19T10:08:14.016Z,24.10
2022-08-19T10:11:28.639Z,24.40
2022-08-19T10:14:08.893Z,24.50
2022-08-19T10:16:54.578Z,24.50
2022-08-19T10:19:41.592Z,24.50
2022-08-19T10:22:42.521Z,24.50
2022-08-19T10:25:28.602Z,24.70
2022-08-19T10:28:19.053Z,24.70
2022-08-19T10:31:07.574Z,24.50
2022-08-19T10:33:58.708Z,24.50
2022-08-19T10:36:56.271Z,24.50
2022-08-19T10:39:48.940Z,24.70
2022-08-19T10:42:36.295Z,24.90
2022-08-19T10:45:25.857Z,25.00
2022-08-19T10:48:15.725Z,25.50
2022-08-19T10:51:25.108Z,25.20
2022-08-19T10:54:12.556Z,24.90
2022-08-19T10:56:59.213Z,25.10
2022-08-19T10:59:44.881Z,25.40
2022-08-19T11:02:31.586Z,25.40
2022-08-19T11:05:18.821Z,25.20
2022-08-19T11:08:23.464Z,25.10
2022-08-19T11:11:10.045Z,25.10
2022-08-19T11:13:56.572Z,25.10
2022-08-19T11:16:43.713Z,25.10
2022-08-19T11:19:29.758Z,25.70
2022-08-19T11:22:16.213Z,26.00
2022-08-19T11:25:05.809Z,26.30
2022-08-19T11:27:53.229Z,26.10
2022-08-19T11:30:40.661Z,26.30
2022-08-19T11:33:27.280Z,26.40
2022-08-19T11:36:15.229Z,26.30
2022-08-19T11:39:02.512Z,25.90
2022-08-19T11:41:49.017Z,25.90
2022-08-19T11:44:34.662Z,26.00
2022-08-19T11:47:22.969Z,26.10
2022-08-19T11:50:09.080Z,26.00
2022-08-19T11:52:56.714Z,25.80
2022-08-19T11:55:44.332Z,25.70
2022-08-19T11:58:30.633Z,25.60
2022-08-19T12:01:20.430Z,25.70
2022-08-19T12:04:07.051Z,25.70
2022-08-19T12:06:54.146Z,25.70
2022-08-19T12:09:42.795Z,25.70
2022-08-19T12:12:28.958Z,25.80
2022-08-19T12:15:15.528Z,25.80
2022-08-19T12:18:01.485Z,25.90
2022-08-19T12:20:48.629Z,25.90
2022-08-19T12:23:35.044Z,25.90
2022-08-19T12:26:21.118Z,25.90
2022-08-19T12:29:09.378Z,26.00
2022-08-19T12:32:03.923Z,26.10
2022-08-19T12:34:50.873Z,26.20
2022-08-19T12:37:36.563Z,26.30
2022-08-19T12:40:22.474Z,26.40
2022-08-19T12:43:09.718Z,26.80
2022-08-19T12:45:56.358Z,26.70
2022-08-19T12:48:45.103Z,26.90
2022-08-19T12:51:32.408Z,26.80
2022-08-19T12:54:18.719Z,26.70
2022-08-19T12:57:08.901Z,26.70
2022-08-19T12:59:56.736Z,26.90
2022-08-19T13:02:45.951Z,27.20
2022-08-19T13:05:36.773Z,27.90
2022-08-19T13:08:22.660Z,29.20
2022-08-19T13:11:19.066Z,30.50
2022-08-19T13:14:06.209Z,31.50
2022-08-19T13:16:52.228Z,32.20
2022-08-19T13:19:38.941Z,33.70
2022-08-19T13:22:25.897Z,35.00
2022-08-19T13:25:12.784Z,34.70
2022-08-19T13:27:59.220Z,34.80
2022-08-19T13:31:06.908Z,36.50
2022-08-19T13:33:53.197Z,35.90
2022-08-19T13:36:39.685Z,36.50
2022-08-19T13:39:26.368Z,37.30
2022-08-19T13:42:13.949Z,38.00
2022-08-19T13:45:00.630Z,38.30
2022-08-19T13:47:48.890Z,37.40
2022-08-19T13:50:42.385Z,38.70
2022-08-19T13:53:28.064Z,38.40
2022-08-19T13:56:18.121Z,39.20
2022-08-19T13:59:03.897Z,39.00
2022-08-19T14:01:49.739Z,37.70
2022-08-19T14:04:35.651Z,39.00
2022-08-19T14:07:24.428Z,39.40
2022-08-19T14:10:12.695Z,41.20
2022-08-19T14:13:02.449Z,41.20
2022-08-19T14:15:48.584Z,39.70
2022-08-19T14:18:35.522Z,40.90
2022-08-19T14:21:24.659Z,41.30
2022-08-19T14:24:10.731Z,41.40
2022-08-19T14:26:58.201Z,40.50
2022-08-19T14:29:43.889Z,40.20
2022-08-19T14:32:30.906Z,40.30
2022-08-19T14:35:17.267Z,41.10
2022-08-19T14:38:05.742Z,42.80
2022-08-19T14:40:52.898Z,42.40
2022-08-19T14:43:40.809Z,42.90
2022-08-19T14:46:29.628Z,43.50
2022-08-19T14:49:15.291Z,43.50
2022-08-19T14:52:02.250Z,44.10
2022-08-19T14:54:47.743Z,42.40
2022-08-19T14:57:33.958Z,43.00
2022-08-19T15:00:20.069Z,41.30
2022-08-19T15:03:05.820Z,42.80
2022-08-19T15:05:51.603Z,44.30
2022-08-19T15:08:40.104Z,43.90
2022-08-19T15:11:28.520Z,45.10
2022-08-19T15:14:16.147Z,44.50
2022-08-19T15:17:03.991Z,44.00
2022-08-19T15:19:49.880Z,43.50
2022-08-19T15:22:36.696Z,44.20
2022-08-19T15:25:22.408Z,43.30
2022-08-19T15:28:11.990Z,42.60
2022-08-19T15:30:57.785Z,41.80
2022-08-19T15:33:43.870Z,41.80
2022-08-19T15:36:29.634Z,42.60
2022-08-19T15:39:15.467Z,42.30
2022-08-19T15:42:02.242Z,42.00
2022-08-19T15:44:48.724Z,41.90
2022-08-19T15:47:37.159Z,40.80
2022-08-19T15:50:23.694Z,39.60
2022-08-19T15:53:11.479Z,39.50
2022-08-19T15:55:57.711Z,39.00
2022-08-19T15:59:02.454Z,38.80
2022-08-19T16:02:06.396Z,38.90
2022-08-19T16:05:15.542Z,39.10
2022-08-19T16:08:02.563Z,37.20
2022-08-19T16:10:48.070Z,35.60
2022-08-19T16:13:33.928Z,35.00
2022-08-19T16:16:31.035Z,34.90
2022-08-19T16:19:20.585Z,34.20
2022-08-19T16:22:06.712Z,34.00
2022-08-19T16:24:52.738Z,33.70
2022-08-19T16:27:38.722Z,33.90
2022-08-19T16:30:25.335Z,36.40
2022-08-19T16:33:11.534Z,38.20
2022-08-19T16:36:06.844Z,39.10
2022-08-19T16:38:54.837Z,39.00
2022-08-19T16:41:42.547Z,39.80
2022-08-19T16:44:29.526Z,40.20
2022-08-19T16:47:17.919Z,37.30
2022-08-19T16:50:07.424Z,34.60
2022-08-19T16:52:53.797Z,33.90
2022-08-19T16:55:39.360Z,33.30
2022-08-19T16:58:28.161Z,36.20
2022-08-19T17:01:14.635Z,37.10
2022-08-19T17:04:00.191Z,37.10
2022-08-19T17:06:45.767Z,37.60
2022-08-19T17:09:32.335Z,36.30
2022-08-19T17:12:18.623Z,35.30
2022-08-19T17:15:07.125Z,34.30
2022-08-19T17:18:18.403Z,34.10
2022-08-19T17:21:04.636Z,35.60
2022-08-19T17:23:50.706Z,34.50
2022-08-19T17:26:40.048Z,32.70
2022-08-19T17:29:26.280Z,32.00
2022-08-19T17:32:12.788Z,31.80
2022-08-19T17:34:58.792Z,31.60
2022-08-19T17:37:44.927Z,32.80
2022-08-19T17:40:33.228Z,33.70
2022-08-19T17:43:32.789Z,33.50
2022-08-19T17:46:20.459Z,32.20
2022-08-19T17:49:06.757Z,32.00
2022-08-19T17:51:53.417Z,31.60
2022-08-19T17:54:38.872Z,31.30
2022-08-19T17:57:25.427Z,31.00
2022-08-19T18:00:15.441Z,30.80
2022-08-19T18:03:05.061Z,30.70
2022-08-19T18:05:53.447Z,30.20
2022-08-19T18:08:40.359Z,30.00
2022-08-19T18:11:26.176Z,30.00
2022-08-19T18:14:13.217Z,29.70
2022-08-19T18:16:59.982Z,29.30
2022-08-19T18:19:47.651Z,29.20
2022-08-19T18:22:39.967Z,29.10
2022-08-19T18:25:27.568Z,29.10
2022-08-19T18:28:14.090Z,29.10
2022-08-19T18:31:03.055Z,29.00
2022-08-19T18:33:52.356Z,28.90
2022-08-19T18:36:53.552Z,28.80
2022-08-19T18:39:58.425Z,28.80
2022-08-19T18:43:04.783Z,28.70
2022-08-19T18:46:09.749Z,28.50
2022-08-19T18:49:05.085Z,28.40
2022-08-19T18:51:51.423Z,28.20
2022-08-19T18:54:38.277Z,28.20
2022-08-19T18:57:25.440Z,28.10
2022-08-19T19:00:12.986Z,27.90
2022-08-19T19:02:59.607Z,27.70
2022-08-19T19:05:46.234Z,27.60
2022-08-19T19:08:32.130Z,27.70
2022-08-19T19:11:25.437Z,27.50
2022-08-19T19:14:23.289Z,27.50
2022-08-19T19:17:26.178Z,27.30
2022-08-19T19:20:12.308Z,27.10
2022-08-19T19:22:58.495Z,27.10
2022-08-19T19:25:50.345Z,27.10
2022-08-19T19:28:39.442Z,27.10
2022-08-19T19:31:26.794Z,27.20
2022-08-19T19:34:29.203Z,27.30
2022-08-19T19:37:17.094Z,27.10
2022-08-19T19:40:03.853Z,27.10
2022-08-19T19:42:50.202Z,27.00
2022-08-19T19:45:37.845Z,27.00
2022-08-19T19:48:24.737Z,27.00
2022-08-19T19:51:12.270Z,27.00
2022-08-19T19:53:57.685Z,27.00
2022-08-19T19:56:46.135Z,27.00
2022-08-19T19:59:33.559Z,26.90
2022-08-19T20:02:21.060Z,26.90
2022-08-19T20:05:06.823Z,26.80
2022-08-19T20:08:13.119Z,26.80
2022-08-19T20:11:02.484Z,26.70
2022-08-19T20:13:48.638Z,26.60
2022-08-19T20:16:35.310Z,26.60
2022-08-19T20:19:25.974Z,26.60
2022-08-19T20:22:13.909Z,26.50
2022-08-19T20:25:01.198Z,26.50
2022-08-19T20:27:47.095Z,26.40
2022-08-19T20:30:33.519Z,26.40
2022-08-19T20:33:19.332Z,26.30
2022-08-19T20:36:05.218Z,26.20
2022-08-19T20:38:51.885Z,26.30
2022-08-19T20:41:38.825Z,26.20
2022-08-19T20:44:25.445Z,26.20
2022-08-19T20:47:11.193Z,26.30
2022-08-19T20:49:57.699Z,26.20
2022-08-19T20:52:43.833Z,26.20
2022-08-19T20:55:39.021Z,26.20
2022-08-19T20:58:26.302Z,26.20
2022-08-19T21:01:13.360Z,26.20
2022-08-19T21:04:00.699Z,26.20
2022-08-19T21:06:46.520Z,26.10
2022-08-19T21:09:32.386Z,26.10
2022-08-19T21:12:19.329Z,26.00
2022-08-19T21:15:07.177Z,26.00
2022-08-19T21:17:52.708Z,26.00
2022-08-19T21:20:39.515Z,26.00
2022-08-19T21:23:28.392Z,26.00
2022-08-19T21:26:14.241Z,26.00
2022-08-19T21:28:59.885Z,26.00
2022-08-19T21:31:46.022Z,25.80
2022-08-19T21:34:32.203Z,25.80
2022-08-19T21:37:25.269Z,25.80
2022-08-19T21:40:12.411Z,25.70
2022-08-19T21:42:58.493Z,25.70
2022-08-19T21:45:45.592Z,25.70
2022-08-19T21:48:31.730Z,25.60
2022-08-19T21:51:17.981Z,25.70
2022-08-19T21:54:03.880Z,25.70
2022-08-19T21:56:50.387Z,25.70
2022-08-19T21:59:36.136Z,25.70
2022-08-19T22:02:22.432Z,25.70
2022-08-19T22:05:08.926Z,25.70
2022-08-19T22:07:59.844Z,25.70
2022-08-19T22:10:46.665Z,25.70
2022-08-19T22:13:40.513Z,25.60
2022-08-19T22:16:27.508Z,25.60
2022-08-19T22:19:15.465Z,25.50
2022-08-19T22:22:01.465Z,25.50
2022-08-19T22:24:47.267Z,25.50
2022-08-19T22:27:33.646Z,25.50
2022-08-19T22:30:22.888Z,25.40
2022-08-19T22:33:13.093Z,25.40
2022-08-19T22:35:59.305Z,25.40
2022-08-19T22:38:44.938Z,25.30
2022-08-19T22:41:33.399Z,25.20
2022-08-19T22:44:20.429Z,25.10
2022-08-19T22:47:06.242Z,25.10
2022-08-19T22:49:52.239Z,25.20
2022-08-19T22:52:39.048Z,25.20
2022-08-19T22:55:38.872Z,25.10
2022-08-19T22:58:27.980Z,25.10
2022-08-19T23:01:27.192Z,25.10
2022-08-19T23:04:17.266Z,25.10
2022-08-19T23:07:04.264Z,25.00
2022-08-19T23:09:50.621Z,25.00
2022-08-19T23:12:40.092Z,24.90
2022-08-19T23:15:29.685Z,24.90
2022-08-19T23:18:15.953Z,24.80
2022-08-19T23:21:01.964Z,24.70
2022-08-19T23:23:47.775Z,24.60
2022-08-19T23:26:36.105Z,24.50
2022-08-19T23:29:40.123Z,24.50
2022-08-19T23:32:25.802Z,24.30
2022-08-19T23:35:12.222Z,24.20
2022-08-19T23:37:58.809Z,24.20
2022-08-19T23:40:45.195Z,24.20
2022-08-19T23:43:31.458Z,24.10
2022-08-19T23:46:27.612Z,24.10
2022-08-19T23:49:14.990Z,24.10
2022-08-19T23:52:00.903Z,24.10
2022-08-19T23:54:47.247Z,24.10
2022-08-19T23:57:33.630Z,24.10
